Aeroporto :
LOGIN :

Iscrizione | Disclaimer

   EN    FR    IT 

 










Sommario :    VFR   VFR Marginale   IFR   IFR Intensivo   IFR Molto Intensivo
Visibilità : 
Base nubi : 
>= 8 km
>= 3000ft
5 / 8 km
1000 / 3000 ft
1500m / 5 km
500 / 1000 ft
800 / 1500m
200 / 500 ft
< 800m
< 200 ft
Simboli :   Temporali  Nebbia  Neve Forte  Precipitazioni Forti  Vento > 20 kt
SIGMETs :   Varie  Temporali  Ghiacco  Turbolenza  Onda orograficha  Ceneri Vulcaniche






- Altitudine del aeroporto : 57 ft
- Codice IATA : KRS


ENCN - Kristiansand Kjevik

ULTIMO METAR :
  • 311720Z 10007KT 070V130 CAVOK 20/04 Q1030

METARs OBSOLETI :
  • 311650Z 11007KT 070V130 CAVOK 20/03 Q1030
  • 311620Z 11009KT CAVOK 21/04 Q1030
  • 311550Z 09010KT CAVOK 20/04 Q1030
  • 311520Z 08010KT 050V120 CAVOK 20/04 Q1030
  • 311450Z 10011KT 070V140 CAVOK 20/05 Q1031

TAF TAF ENCN
Valido dal 31 a 15 ore il 31 a 21 ore UTC


311400Z 3115/3121 09012KT CAVOK
BECMG 3118/3120 VRB05KT



MetMap, La meteo Aeronautica in un colpo d'occhio ! - Copyright ORBIFLY Dicembre 2007 - Disclaimer

ORBIFLY MET'MAP TEAM :

Programmazione e sviluppo : Alexandra Zaïnal
Concezione : Baudouin d'Aumeries
Aiuto per la programmazione : Marc-Olivier Méhu
Supporto tecnico e logistico : Manuel Goepfert
Aiuto per la traduzione : Arnaldo La Scala

Contatto : metmap@orbifly.com




FONTI E CREDITI :

   NOAA